Time;durP1;ratioP1;P1;durP2;ratioP2;P2;SDS_P1;SDS_P2;PMS_P1;PMS_P2;Temp;Humidity;BMP_temperature;BMP_pressure;BME280_temperature;BME280_humidity;BME280_pressure;Samples;Min_cycle;Max_cycle;Signal;HPM_P1;HPM_P2
2022/11/03 00:01:53;;;;;;;1.05;0.70;;;;;;;10.80;82.02;101033.13;4983929;28;20503;-70
2022/11/03 00:04:20;;;;;;;6.18;2.05;;;;;;;10.70;82.33;101037.06;4986066;28;20120;-70
2022/11/03 00:06:48;;;;;;;5.43;0.80;;;;;;;10.82;81.31;101031.63;4989337;28;20038;-69
2022/11/03 00:09:15;;;;;;;4.63;1.20;;;;;;;10.68;82.16;101025.88;4972295;28;20027;-69
2022/11/03 00:11:42;;;;;;;1.45;1.15;;;;;;;10.81;81.54;101027.38;4979436;28;20042;-69
2022/11/03 00:14:09;;;;;;;1.35;0.88;;;;;;;10.70;81.45;101020.91;4979471;28;20034;-70
2022/11/03 00:16:35;;;;;;;1.60;0.95;;;;;;;10.73;81.79;101014.84;4973536;28;20030;-70
2022/11/03 00:19:00;;;;;;;3.10;1.17;;;;;;;10.70;81.65;101014.78;4983304;28;20044;-70
2022/11/03 00:21:26;;;;;;;1.88;0.88;;;;;;;10.79;81.63;101013.47;4973462;28;20410;-69
2022/11/03 00:23:52;;;;;;;4.07;1.27;;;;;;;10.64;82.13;101006.16;4972847;28;20041;-70
2022/11/03 00:26:20;;;;;;;1.77;0.98;;;;;;;10.68;81.56;101004.31;4983387;28;20101;-69
2022/11/03 00:28:48;;;;;;;1.20;1.00;;;;;;;10.64;82.48;101003.47;4983978;28;20030;-70
2022/11/03 00:31:20;;;;;;;3.40;0.93;;;;;;;10.72;81.86;100997.13;4980135;28;20026;-70
2022/11/03 00:33:46;;;;;;;1.92;1.27;;;;;;;10.72;81.36;100997.13;4980413;28;20038;-70
2022/11/03 00:36:14;;;;;;;5.05;0.95;;;;;;;10.73;81.21;100996.00;4987358;28;20026;-70
2022/11/03 00:38:41;;;;;;;1.52;0.98;;;;;;;10.72;81.44;101001.75;4993012;28;20038;-70
2022/11/03 00:41:06;;;;;;;3.05;0.77;;;;;;;10.74;81.16;101008.31;4986381;28;20042;-70
2022/11/03 00:43:33;;;;;;;3.13;1.48;;;;;;;10.75;81.62;101001.03;4985138;28;21518;-70
2022/11/03 00:45:59;;;;;;;1.45;1.13;;;;;;;10.73;81.83;100997.91;4990990;28;20483;-70
2022/11/03 00:48:31;;;;;;;5.15;1.30;;;;;;;10.84;80.99;100988.97;4983915;28;20038;-70
2022/11/03 00:51:06;;;;;;;2.20;1.25;;;;;;;10.70;80.77;100985.16;4977770;28;20035;-70
2022/11/03 00:53:34;;;;;;;1.70;0.90;;;;;;;10.77;81.36;100986.09;4982491;28;20399;-70
2022/11/03 00:56:00;;;;;;;1.67;1.17;;;;;;;10.74;80.92;100989.47;4986324;28;20511;-70
2022/11/03 00:58:26;;;;;;;6.72;1.15;;;;;;;10.52;81.81;100992.78;4991669;28;20061;-70
2022/11/03 01:01:06;;;;;;;1.60;0.90;;;;;;;10.58;81.49;100983.31;4976767;28;20038;-70
2022/11/03 01:03:33;;;;;;;0.57;0.55;;;;;;;10.60;82.26;100986.44;4988683;28;20042;-71
2022/11/03 01:08:43;;;;;;;3.78;1.65;;;;;;;10.60;82.23;100980.28;4981116;28;20041;-70
2022/11/03 01:14:02;;;;;;;2.28;0.90;;;;;;;10.46;82.84;100987.97;4988152;28;20034;-69
2022/11/03 01:16:29;;;;;;;1.75;0.85;;;;;;;10.38;83.02;100978.16;4985311;28;20041;-70
2022/11/03 01:18:55;;;;;;;1.02;0.90;;;;;;;10.62;81.83;100964.53;4991967;28;20113;-70
2022/11/03 01:21:21;;;;;;;4.57;0.95;;;;;;;10.56;82.16;100966.72;4988503;28;20030;-70
2022/11/03 01:23:46;;;;;;;1.70;0.68;;;;;;;10.59;81.82;100966.00;4990502;28;20065;-70
2022/11/03 01:26:12;;;;;;;1.67;0.77;;;;;;;10.64;81.61;100964.97;4977688;28;20480;-69
2022/11/03 01:28:40;;;;;;;3.35;1.08;;;;;;;10.53;81.99;100963.94;4978717;28;20058;-70
2022/11/03 01:31:15;;;;;;;2.35;1.10;;;;;;;10.48;82.03;100959.59;4981073;28;20085;-70
2022/11/03 01:33:40;;;;;;;4.38;1.02;;;;;;;10.30;82.37;100942.19;4990415;28;20112;-70
2022/11/03 01:36:07;;;;;;;1.13;1.02;;;;;;;10.20;83.94;100937.31;4983287;28;20038;-70
2022/11/03 01:38:35;;;;;;;0.80;0.50;;;;;;;10.33;82.83;100948.78;4982969;28;20042;-70
2022/11/03 01:41:02;;;;;;;1.13;0.77;;;;;;;10.46;82.73;100943.00;4980139;28;20043;-70
2022/11/03 01:43:30;;;;;;;0.57;0.55;;;;;;;10.61;82.09;100942.22;4984621;28;20118;-70
2022/11/03 01:46:11;;;;;;;6.50;1.23;;;;;;;10.68;81.86;100944.31;4981657;28;20037;-69
2022/11/03 01:48:44;;;;;;;7.40;1.25;;;;;;;10.73;81.10;100936.75;4986876;28;20041;-70
2022/11/03 01:51:13;;;;;;;1.80;0.93;;;;;;;10.81;81.30;100938.47;4985955;28;20038;-69
2022/11/03 01:53:41;;;;;;;5.05;1.17;;;;;;;10.79;80.84;100921.88;4985533;28;20036;-71
2022/11/03 01:56:09;;;;;;;2.35;1.10;;;;;;;10.75;81.06;100918.31;4976817;28;20058;-72
2022/11/03 01:58:36;;;;;;;9.02;1.42;;;;;;;10.56;81.73;100912.06;4989432;28;20045;-71
2022/11/03 02:01:02;;;;;;;1.05;0.68;;;;;;;10.58;81.79;100918.69;4983895;28;20039;-70
2022/11/03 02:03:33;;;;;;;2.70;1.23;;;;;;;10.82;81.47;100915.78;4991237;28;20422;-70
2022/11/03 02:05:58;;;;;;;4.68;1.10;;;;;;;10.74;81.24;100908.66;4983639;28;20496;-70
2022/11/03 02:08:34;;;;;;;4.78;2.08;;;;;;;10.68;81.59;100909.28;4981957;28;20065;-69
2022/11/03 02:12:05;;;;;;;2.20;1.20;;;;;;;10.73;81.91;100904.41;5011608;28;20045;-70
2022/11/03 02:13:45;;;;;;;2.33;0.68;;;;;;;10.80;81.03;100893.81;4974869;28;20126;-71
2022/11/03 02:16:11;;;;;;;4.03;0.73;;;;;;;10.82;81.46;100891.53;4980986;28;20117;-70
2022/11/03 02:18:38;;;;;;;3.40;1.00;;;;;;;10.56;81.82;100885.16;4978087;28;20118;-70
2022/11/03 02:21:26;;;;;;;0.70;0.70;;;;;;;10.49;81.75;100882.28;4987209;28;20089;-70
2022/11/03 02:24:18;;;;;;;0.55;0.55;;;;;;;10.56;82.35;100885.16;4973056;28;20034;-70
2022/11/03 02:26:47;;;;;;;2.03;1.30;;;;;;;10.52;82.30;100889.66;4970050;28;20523;-71
2022/11/03 02:29:13;;;;;;;4.38;1.35;;;;;;;10.60;82.16;100892.19;4982063;28;20038;-71
2022/11/03 02:31:47;;;;;;;1.20;0.80;;;;;;;10.64;81.93;100879.59;4982419;28;20093;-71
2022/11/03 02:34:20;;;;;;;1.42;0.90;;;;;;;10.68;81.68;100883.13;4977235;28;20444;-70
2022/11/03 02:36:50;;;;;;;2.45;0.60;;;;;;;10.34;82.83;100883.84;4989117;28;20045;-70
2022/11/03 02:39:23;;;;;;;1.05;0.60;;;;;;;10.31;83.60;100883.75;4984373;28;20093;-70
2022/11/03 02:41:52;;;;;;;2.55;1.30;;;;;;;10.31;83.90;100889.94;4983368;28;20516;-71
2022/11/03 02:44:19;;;;;;;1.40;1.08;;;;;;;10.37;83.49;100883.16;4981073;28;20030;-70
2022/11/03 02:46:49;;;;;;;1.92;1.15;;;;;;;10.42;83.72;100874.81;4980594;28;20032;-71
2022/11/03 02:49:15;;;;;;;2.85;0.90;;;;;;;10.32;83.80;100869.94;4991426;28;20376;-71
2022/11/03 02:51:40;;;;;;;1.92;1.20;;;;;;;10.18;84.57;100866.91;4980785;28;20040;-70
2022/11/03 02:54:22;;;;;;;4.47;0.82;;;;;;;10.09;84.71;100849.31;4972753;28;20027;-70
2022/11/03 02:56:51;;;;;;;2.47;1.10;;;;;;;10.32;83.91;100848.41;4986668;28;20035;-70
2022/11/03 02:59:23;;;;;;;2.67;0.82;;;;;;;10.35;83.02;100861.19;4977410;28;20126;-70
2022/11/03 03:02:18;;;;;;;1.83;1.15;;;;;;;10.51;83.24;100853.88;4977088;28;20807;-70
2022/11/03 03:04:56;;;;;;;2.05;1.00;;;;;;;10.35;83.93;100860.41;4988234;28;20487;-71
2022/11/03 03:07:32;;;;;;;2.92;1.00;;;;;;;10.42;83.66;100855.97;4986213;23;20470;-71
2022/11/03 03:10:09;;;;;;;4.43;1.15;;;;;;;10.53;83.52;100850.84;4975349;28;20426;-71
2022/11/03 03:12:39;;;;;;;2.78;1.10;;;;;;;10.54;83.41;100842.41;4966858;28;20065;-71
2022/11/03 03:15:06;;;;;;;1.27;0.90;;;;;;;10.42;83.08;100841.72;4968146;28;20042;-71
2022/11/03 03:17:50;;;;;;;2.15;1.52;;;;;;;10.16;84.91;100833.41;4969378;28;20031;-71
2022/11/03 03:20:38;;;;;;;1.00;0.90;;;;;;;10.28;85.09;100831.38;4945479;28;20043;-72
2022/11/03 03:23:19;;;;;;;1.00;0.80;;;;;;;10.36;84.57;100838.50;4964596;28;20147;-71
2022/11/03 03:25:49;;;;;;;0.80;0.77;;;;;;;10.21;84.86;100828.53;4962604;28;20039;-71
2022/11/03 03:28:23;;;;;;;2.30;1.50;;;;;;;10.22;85.04;100826.63;4970042;28;20459;-71
2022/11/03 03:30:52;;;;;;;1.95;0.80;;;;;;;10.35;85.23;100823.50;4953873;28;20042;-71
2022/11/03 03:33:21;;;;;;;1.48;0.88;;;;;;;10.32;84.80;100821.50;4953115;28;20031;-72
2022/11/03 03:35:48;;;;;;;3.15;1.10;;;;;;;10.32;84.63;100818.81;4963179;28;20030;-72
2022/11/03 03:38:21;;;;;;;1.05;0.75;;;;;;;10.52;84.30;100819.66;4958844;28;20668;-72
2022/11/03 03:40:50;;;;;;;3.03;1.33;;;;;;;10.53;83.98;100810.47;4952842;28;20089;-71
2022/11/03 03:43:19;;;;;;;3.15;0.80;;;;;;;10.52;83.96;100809.66;4966004;28;20058;-72
2022/11/03 03:45:45;;;;;;;0.70;0.50;;;;;;;10.51;84.06;100810.78;4962409;28;20121;-72
2022/11/03 03:48:11;;;;;;;6.80;1.67;;;;;;;10.55;83.69;100816.28;4955290;28;20082;-73
2022/11/03 03:50:39;;;;;;;0.82;0.73;;;;;;;10.39;83.80;100813.59;4954159;28;20042;-71
2022/11/03 03:53:08;;;;;;;4.53;0.82;;;;;;;10.43;83.72;100819.81;4951611;28;20039;-72
2022/11/03 03:55:49;;;;;;;1.00;0.88;;;;;;;10.07;85.50;100812.00;4960536;28;20035;-72
2022/11/03 03:58:15;;;;;;;3.17;0.85;;;;;;;10.22;85.40;100813.19;4960491;28;20495;-71
2022/11/03 04:00:40;;;;;;;1.08;0.80;;;;;;;10.30;85.08;100802.22;4955719;28;20035;-71
2022/11/03 04:03:13;;;;;;;2.13;0.70;;;;;;;10.15;85.29;100804.91;4948814;28;20646;-72
2022/11/03 04:05:38;;;;;;;2.22;0.93;;;;;;;10.21;85.53;100807.00;4949882;28;20500;-71
2022/11/03 04:08:04;;;;;;;7.47;1.30;;;;;;;10.29;85.52;100802.56;4969973;28;20059;-71
2022/11/03 04:10:29;;;;;;;2.38;1.30;;;;;;;10.36;84.75;100803.53;4959103;28;20039;-71
2022/11/03 04:23:46;;;;;;;5.10;0.88;;;;;;;10.17;86.05;100786.50;4952723;28;20046;-71
2022/11/03 04:26:14;;;;;;;3.83;0.80;;;;;;;10.34;85.09;100778.06;4952272;28;20035;-72
2022/11/03 04:28:41;;;;;;;0.77;0.60;;;;;;;10.23;86.10;100783.22;4950746;28;20063;-72
2022/11/03 04:31:12;;;;;;;2.03;0.95;;;;;;;10.21;85.86;100774.72;4949121;29;20031;-72
2022/11/03 04:33:38;;;;;;;2.80;0.88;;;;;;;10.13;86.31;100781.06;4952713;28;20440;-71
2022/11/03 04:36:09;;;;;;;0.98;0.88;;;;;;;10.07;87.03;100771.66;4951075;29;20035;-71
2022/11/03 04:38:36;;;;;;;2.30;0.80;;;;;;;10.09;86.85;100780.16;4951814;29;20045;-71
2022/11/03 04:41:11;;;;;;;2.70;1.15;;;;;;;10.18;86.45;100777.31;4941331;29;20027;-71
2022/11/03 04:43:37;;;;;;;1.67;0.90;;;;;;;10.13;86.97;100778.38;4947787;29;20042;-72
2022/11/03 04:46:04;;;;;;;4.30;1.13;;;;;;;10.37;86.42;100778.19;4951124;29;20031;-72
2022/11/03 04:48:29;;;;;;;7.13;1.60;;;;;;;10.39;85.99;100780.50;4952235;29;20101;-71
2022/11/03 04:50:59;;;;;;;3.22;0.70;;;;;;;10.32;86.16;100781.13;4939950;28;20051;-72
2022/11/03 04:53:29;;;;;;;1.73;1.23;;;;;;;10.39;85.63;100777.81;4951384;29;20090;-72
2022/11/03 04:55:54;;;;;;;1.33;0.70;;;;;;;10.18;86.70;100778.09;4951506;28;20496;-71
2022/11/03 04:58:25;;;;;;;5.25;1.13;;;;;;;10.34;86.39;100778.84;4952300;28;20043;-72
2022/11/03 05:01:02;;;;;;;0.63;0.63;;;;;;;10.32;86.34;100766.88;4952008;28;20031;-72
2022/11/03 05:03:33;;;;;;;2.75;1.00;;;;;;;10.28;86.98;100772.19;4942926;29;20043;-72
2022/11/03 05:06:10;;;;;;;;;;;;;;;10.18;87.07;100772.69;4951417;28;20059;-72
2022/11/03 05:08:35;;;;;;;3.03;1.08;;;;;;;10.23;86.97;100763.59;4967287;28;19914;-72
2022/11/03 05:11:11;;;;;;;1.00;0.80;;;;;;;10.13;87.00;100758.75;4952204;29;20038;-71
2022/11/03 05:13:37;;;;;;;2.53;0.90;;;;;;;10.18;87.54;100753.13;4967290;28;20043;-72
2022/11/03 05:16:04;;;;;;;1.48;0.90;;;;;;;10.05;87.43;100765.84;4950941;28;20392;-72
2022/11/03 05:18:31;;;;;;;2.95;1.10;;;;;;;10.12;87.57;100757.97;4946485;28;20504;-72
2022/11/03 05:21:00;;;;;;;4.40;0.75;;;;;;;10.20;87.82;100757.00;4933153;29;20139;-71
2022/11/03 05:23:28;;;;;;;1.65;1.20;;;;;;;10.09;87.53;100758.63;4936987;29;20027;-72
2022/11/03 05:25:56;;;;;;;2.85;1.02;;;;;;;10.13;87.53;100748.75;4934288;29;20412;-72
2022/11/03 05:28:25;;;;;;;5.28;0.77;;;;;;;10.04;87.99;100750.84;4943760;29;20047;-72
2022/11/03 05:30:51;;;;;;;3.58;1.10;;;;;;;10.12;87.68;100749.13;4939782;28;20144;-72
2022/11/03 05:33:35;;;;;;;1.08;0.70;;;;;;;10.17;86.99;100741.56;4955836;28;20059;-72
2022/11/03 05:36:07;;;;;;;5.53;0.75;;;;;;;10.18;87.04;100735.03;4953240;29;20039;-72
2022/11/03 05:38:33;;;;;;;;;;;;;;;10.12;87.22;100743.75;4938532;29;20039;-72
2022/11/03 05:41:00;;;;;;;2.55;0.80;;;;;;;10.28;87.71;100734.50;4955100;29;20394;-72
2022/11/03 05:43:28;;;;;;;1.05;0.77;;;;;;;10.38;86.21;100733.19;4955820;28;20039;-72
2022/11/03 05:45:57;;;;;;;0.50;0.50;;;;;;;10.27;87.09;100724.09;4953575;28;20027;-72
2022/11/03 05:48:30;;;;;;;2.33;1.10;;;;;;;10.24;87.59;100719.41;4955402;28;20043;-72
2022/11/03 05:50:59;;;;;;;1.55;0.85;;;;;;;10.23;86.95;100718.63;4955252;28;20043;-72
2022/11/03 05:53:25;;;;;;;1.70;0.95;;;;;;;10.39;86.66;100715.91;4954026;29;20436;-72
2022/11/03 05:55:50;;;;;;;5.85;1.10;;;;;;;10.26;86.95;100711.78;4953899;28;20125;-72
2022/11/03 05:58:35;;;;;;;0.70;0.70;;;;;;;10.13;87.59;100711.09;4959889;28;20162;-72
2022/11/03 06:01:09;;;;;;;0.80;0.57;;;;;;;10.32;86.68;100710.34;4947292;29;20035;-72
2022/11/03 06:03:35;;;;;;;2.15;0.80;;;;;;;10.17;87.14;100716.56;4951646;29;20054;-72
2022/11/03 06:06:01;;;;;;;0.82;0.55;;;;;;;10.09;87.86;100714.78;4952241;29;20055;-72
2022/11/03 06:08:32;;;;;;;4.75;1.33;;;;;;;9.96;88.37;100716.81;4953499;29;20036;-72
2022/11/03 06:11:00;;;;;;;3.25;1.00;;;;;;;10.12;88.18;100709.53;4953685;28;20035;-72
2022/11/03 06:13:33;;;;;;;1.65;1.00;;;;;;;10.08;88.38;100719.41;4952722;29;20039;-72
2022/11/03 06:16:03;;;;;;;1.20;0.85;;;;;;;9.79;89.16;100707.19;4953456;28;20122;-72
2022/11/03 06:18:33;;;;;;;1.83;1.27;;;;;;;9.99;88.86;100708.81;4952474;29;20054;-72
2022/11/03 06:21:06;;;;;;;3.95;1.33;;;;;;;9.89;89.14;100695.13;4953825;29;20039;-72
2022/11/03 06:23:33;;;;;;;0.88;0.85;;;;;;;9.93;89.36;100706.75;4953419;28;20075;-72
2022/11/03 06:26:01;;;;;;;1.95;0.80;;;;;;;10.07;88.38;100698.22;4948554;28;20043;-72
2022/11/03 06:28:31;;;;;;;0.82;0.70;;;;;;;10.21;88.04;100695.88;4946888;28;20042;-73
2022/11/03 06:30:56;;;;;;;1.52;0.55;;;;;;;10.06;87.79;100699.38;4947182;28;20062;-73
2022/11/03 06:33:27;;;;;;;6.32;1.00;;;;;;;10.08;88.22;100697.88;4952361;28;20035;-73
2022/11/03 06:36:10;;;;;;;2.55;0.93;;;;;;;10.30;87.84;100697.25;4950833;28;20385;-74
2022/11/03 06:38:36;;;;;;;2.50;0.80;;;;;;;10.38;87.46;100693.59;4948673;28;20109;-73
2022/11/03 06:41:01;;;;;;;2.10;0.85;;;;;;;10.20;87.29;100687.03;4948107;28;20496;-72
2022/11/03 06:43:40;;;;;;;4.60;1.00;;;;;;;10.13;88.24;100675.31;4949347;28;20051;-72
2022/11/03 06:46:23;;;;;;;1.40;1.08;;;;;;;10.20;88.35;100668.19;4953887;28;20034;-72
2022/11/03 06:49:00;;;;;;;0.95;0.60;;;;;;;10.34;87.72;100673.09;4964752;28;20031;-72
2022/11/03 06:51:29;;;;;;;2.65;0.75;;;;;;;10.55;86.42;100679.72;4952339;28;20039;-72
2022/11/03 06:54:00;;;;;;;1.90;1.02;;;;;;;10.51;86.59;100681.53;4966656;28;20177;-72
2022/11/03 06:56:28;;;;;;;2.15;0.65;;;;;;;10.45;86.36;100669.50;4952876;29;20498;-72
2022/11/03 06:58:55;;;;;;;1.33;0.75;;;;;;;10.44;86.06;100659.88;4952526;28;20406;-72
2022/11/03 07:01:28;;;;;;;4.40;0.65;;;;;;;10.32;87.22;100661.91;4964137;28;20055;-72
2022/11/03 07:04:17;;;;;;;0.60;0.60;;;;;;;10.18;87.69;100656.22;4969880;28;20035;-71
2022/11/03 07:06:44;;;;;;;2.20;1.20;;;;;;;10.01;88.84;100662.75;4953820;28;20031;-72
2022/11/03 07:09:19;;;;;;;2.22;1.27;;;;;;;10.26;87.86;100652.56;4968607;28;20039;-72
2022/11/03 07:11:51;;;;;;;1.65;1.02;;;;;;;10.38;87.94;100641.66;4954079;28;20043;-71
2022/11/03 07:14:20;;;;;;;0.85;0.68;;;;;;;10.51;87.18;100659.25;4934986;29;20027;-72
2022/11/03 07:16:53;;;;;;;1.05;0.80;;;;;;;10.64;86.64;100653.38;4947452;28;20624;-72
2022/11/03 07:19:29;;;;;;;1.80;0.85;;;;;;;10.75;86.49;100662.44;4952611;28;20043;-72
2022/11/03 07:21:58;;;;;;;2.03;1.20;;;;;;;10.67;86.11;100663.44;4953821;29;20042;-72
2022/11/03 07:24:30;;;;;;;0.70;0.50;;;;;;;10.77;86.03;100656.69;4951939;29;20034;-72
2022/11/03 07:27:02;;;;;;;2.25;1.45;;;;;;;10.64;86.84;100656.06;4947355;28;20067;-72
2022/11/03 07:29:29;;;;;;;2.65;1.13;;;;;;;10.66;86.21;100661.09;4952060;28;20043;-73
2022/11/03 07:31:57;;;;;;;2.08;0.63;;;;;;;10.74;86.32;100655.47;4953317;29;20023;-73
2022/11/03 07:34:28;;;;;;;6.13;0.80;;;;;;;10.91;85.51;100659.66;4967216;28;20087;-71
2022/11/03 07:36:56;;;;;;;0.75;0.70;;;;;;;10.74;86.01;100654.72;4966790;28;20043;-71
2022/11/03 07:39:21;;;;;;;1.17;0.80;;;;;;;11.05;84.82;100649.16;4949686;29;20055;-71
2022/11/03 07:41:49;;;;;;;1.17;0.82;;;;;;;11.01;85.05;100650.22;4950718;29;20039;-71
2022/11/03 07:44:19;;;;;;;3.17;0.95;;;;;;;10.93;84.75;100643.91;4951656;28;20035;-73
2022/11/03 07:46:45;;;;;;;7.65;0.80;;;;;;;10.66;86.09;100644.94;4952386;28;20320;-73
2022/11/03 07:49:24;;;;;;;1.65;0.90;;;;;;;10.76;86.36;100645.13;4951764;29;20038;-73
2022/11/03 07:51:49;;;;;;;2.25;0.60;;;;;;;10.67;86.77;100639.19;4953105;28;20043;-72
2022/11/03 07:54:33;;;;;;;0.47;0.47;;;;;;;10.62;86.87;100639.47;4952081;28;20118;-72
2022/11/03 07:57:04;;;;;;;1.33;0.60;;;;;;;10.76;87.17;100637.03;4956835;28;20035;-71
2022/11/03 07:59:37;;;;;;;2.83;1.00;;;;;;;10.85;86.72;100643.00;4944735;28;20066;-72
2022/11/03 08:02:21;;;;;;;0.68;0.60;;;;;;;10.97;86.40;100635.91;4938636;29;20409;-72
2022/11/03 08:04:47;;;;;;;1.67;0.95;;;;;;;10.84;86.53;100627.97;4956060;28;20109;-71
2022/11/03 08:07:12;;;;;;;1.23;0.75;;;;;;;10.99;85.71;100622.84;4948687;29;21581;-72
2022/11/03 08:09:38;;;;;;;2.30;1.10;;;;;;;11.19;84.63;100632.44;4952420;28;20042;-72
2022/11/03 08:12:03;;;;;;;2.95;0.57;;;;;;;11.23;84.96;100628.66;4951300;29;20106;-72
2022/11/03 08:14:30;;;;;;;1.17;0.82;;;;;;;11.03;85.58;100623.69;4949964;29;20035;-72
2022/11/03 08:16:55;;;;;;;2.08;1.17;;;;;;;11.19;85.67;100616.28;4948912;28;20039;-72
2022/11/03 08:19:21;;;;;;;5.30;0.98;;;;;;;11.42;84.54;100617.06;4950527;29;20043;-71
2022/11/03 08:21:46;;;;;;;2.13;0.77;;;;;;;10.87;86.65;100608.41;4952729;29;20485;-71
2022/11/03 08:24:11;;;;;;;0.50;0.50;;;;;;;11.13;86.18;100604.25;4950534;29;20408;-71
2022/11/03 08:26:37;;;;;;;2.90;0.65;;;;;;;11.29;85.01;100594.88;4951649;29;20030;-72
2022/11/03 08:29:02;;;;;;;5.82;1.15;;;;;;;11.43;85.01;100600.50;4949528;28;20039;-72
2022/11/03 08:31:28;;;;;;;1.30;1.00;;;;;;;11.65;84.73;100596.22;4945812;29;20094;-72
2022/11/03 08:33:53;;;;;;;3.65;1.48;;;;;;;11.71;83.61;100594.81;4952150;29;20039;-73
2022/11/03 08:36:19;;;;;;;0.50;0.50;;;;;;;11.55;83.51;100597.63;4966299;28;20032;-72
2022/11/03 08:38:44;;;;;;;3.03;1.00;;;;;;;11.71;83.74;100600.19;4949090;29;20512;-72
2022/11/03 08:41:10;;;;;;;1.85;1.08;;;;;;;11.50;84.78;100589.03;4951990;29;20035;-72
2022/11/03 08:43:35;;;;;;;5.00;0.90;;;;;;;11.30;84.95;100587.56;4944693;29;20040;-72
2022/11/03 08:46:01;;;;;;;3.83;0.88;;;;;;;11.45;85.51;100583.97;4946689;28;20094;-72
2022/11/03 08:48:27;;;;;;;2.90;0.80;;;;;;;11.07;86.64;100586.81;4951118;28;20143;-71
2022/11/03 08:50:53;;;;;;;6.22;1.00;;;;;;;11.42;85.51;100577.34;4951173;29;20133;-71
2022/11/03 08:53:23;;;;;;;1.77;0.60;;;;;;;11.66;85.03;100565.41;4952027;29;20031;-71
2022/11/03 08:55:49;;;;;;;4.13;0.77;;;;;;;11.82;85.07;100559.88;4962494;28;20078;-71
2022/11/03 08:58:14;;;;;;;0.82;0.82;;;;;;;11.86;84.19;100558.00;4954298;29;20066;-73
2022/11/03 09:00:40;;;;;;;4.55;0.70;;;;;;;11.86;83.98;100574.19;4967086;28;20492;-72
2022/11/03 09:03:05;;;;;;;2.20;0.90;;;;;;;11.83;83.12;100567.59;4954132;29;20488;-73
2022/11/03 09:05:31;;;;;;;1.45;1.33;;;;;;;11.77;83.87;100569.03;4954131;28;20039;-72
2022/11/03 09:07:56;;;;;;;0.50;0.47;;;;;;;11.74;84.94;100561.69;4993090;22;20031;-66
2022/11/03 09:10:23;;;;;;;1.33;0.63;;;;;;;11.77;84.81;100564.44;5007003;28;20042;-66
2022/11/03 09:12:49;;;;;;;5.00;0.77;;;;;;;11.91;84.91;100569.25;5009532;28;20048;-66
2022/11/03 09:15:18;;;;;;;3.13;1.08;;;;;;;12.11;83.70;100559.88;5010214;28;20142;-66
2022/11/03 09:17:50;;;;;;;3.22;1.00;;;;;;;12.16;83.81;100556.06;5010035;28;20053;-66
2022/11/03 09:20:17;;;;;;;3.20;0.95;;;;;;;12.21;83.99;100543.03;5022289;28;20064;-66
2022/11/03 09:22:45;;;;;;;0.68;0.57;;;;;;;12.15;83.17;100541.03;5020489;28;20030;-66
2022/11/03 09:25:11;;;;;;;1.40;0.68;;;;;;;12.28;83.10;100535.00;5007448;28;20031;-66
2022/11/03 09:27:37;;;;;;;2.30;1.05;;;;;;;12.35;83.41;100537.78;5014576;28;20034;-66
2022/11/03 09:30:03;;;;;;;2.05;0.82;;;;;;;12.42;82.24;100531.69;5020516;28;20030;-66
2022/11/03 09:32:35;;;;;;;2.33;0.98;;;;;;;12.38;82.50;100523.56;5015638;28;20041;-66
2022/11/03 09:35:00;;;;;;;5.90;0.82;;;;;;;12.54;82.00;100529.50;5007235;28;20041;-66
2022/11/03 09:37:27;;;;;;;2.78;1.10;;;;;;;12.45;82.91;100526.31;5015264;28;20042;-66
2022/11/03 09:39:52;;;;;;;2.35;0.50;;;;;;;12.20;83.98;100519.88;5015423;28;20042;-66
2022/11/03 09:42:18;;;;;;;2.97;0.98;;;;;;;12.01;85.06;100522.72;5015021;28;20501;-66
2022/11/03 09:44:49;;;;;;;3.28;0.90;;;;;;;12.26;84.98;100521.09;5009174;28;20049;-66
2022/11/03 09:47:22;;;;;;;1.58;0.73;;;;;;;12.28;85.18;100524.22;5005904;28;20061;-66
2022/11/03 09:49:48;;;;;;;5.72;1.00;;;;;;;12.29;84.71;100514.94;5014946;28;20037;-66
2022/11/03 09:52:18;;;;;;;4.03;1.20;;;;;;;12.58;83.05;100513.34;5015377;28;20065;-66
2022/11/03 09:54:44;;;;;;;2.45;0.85;;;;;;;12.80;82.59;100520.47;5014311;28;20042;-66
2022/11/03 09:57:13;;;;;;;2.83;0.63;;;;;;;12.97;82.36;100509.03;5014937;28;20048;-66
2022/11/03 09:59:41;;;;;;;4.43;0.80;;;;;;;13.09;82.10;100506.09;5003637;28;20118;-66
2022/11/03 10:02:19;;;;;;;5.30;1.05;;;;;;;13.06;81.56;100497.94;5014256;28;20038;-66
2022/11/03 10:04:45;;;;;;;3.60;1.15;;;;;;;13.16;82.04;100500.72;5021871;28;20049;-66
2022/11/03 10:07:10;;;;;;;1.65;0.73;;;;;;;13.40;81.27;100502.81;5016138;28;20022;-66
2022/11/03 10:09:42;;;;;;;2.53;0.60;;;;;;;13.39;81.01;100493.16;5014317;28;20525;-66
2022/11/03 10:12:08;;;;;;;2.45;0.65;;;;;;;13.60;80.74;100500.63;5015880;28;20038;-66
2022/11/03 10:14:34;;;;;;;3.50;0.68;;;;;;;13.56;79.94;100491.72;5010454;28;20111;-66
2022/11/03 10:16:59;;;;;;;2.78;0.47;;;;;;;13.72;80.64;100491.41;5003747;28;20038;-66
2022/11/03 10:19:26;;;;;;;8.80;1.27;;;;;;;13.79;80.02;100488.72;5010668;28;20057;-66
2022/11/03 10:21:52;;;;;;;1.38;0.50;;;;;;;13.64;79.90;100487.91;5007038;28;20438;-66
2022/11/03 10:24:17;;;;;;;6.80;0.98;;;;;;;13.89;79.86;100486.06;5008126;28;20041;-67
2022/11/03 10:26:46;;;;;;;0.63;0.60;;;;;;;14.10;79.28;100482.66;5011604;28;20041;-67
2022/11/03 10:29:23;;;;;;;1.02;0.80;;;;;;;14.23;79.59;100481.94;5011306;28;20031;-68
2022/11/03 10:31:52;;;;;;;3.20;0.60;;;;;;;14.37;79.39;100473.88;5006996;28;20413;-68
2022/11/03 10:34:32;;;;;;;1.70;0.47;;;;;;;14.34;78.64;100468.44;5003734;28;20045;-67
2022/11/03 10:37:22;;;;;;;2.65;1.40;;;;;;;14.51;78.89;100473.13;5005871;28;20080;-67
2022/11/03 10:39:50;;;;;;;0.80;0.40;;;;;;;14.43;78.25;100463.41;5012509;28;20042;-66
2022/11/03 10:42:22;;;;;;;2.03;0.98;;;;;;;14.36;79.11;100472.31;5006304;28;20506;-66
2022/11/03 10:44:54;;;;;;;0.65;0.40;;;;;;;14.55;77.74;100473.13;5003213;28;20045;-66
2022/11/03 10:47:33;;;;;;;1.48;0.38;;;;;;;14.68;77.97;100468.84;5013592;28;20029;-66
2022/11/03 10:50:12;;;;;;;0.43;0.40;;;;;;;14.69;77.72;100451.44;5001798;28;20041;-66
2022/11/03 10:52:38;;;;;;;5.72;0.95;;;;;;;14.83;77.62;100459.56;4997819;28;20045;-66
2022/11/03 10:55:03;;;;;;;2.45;0.88;;;;;;;14.82;77.17;100447.19;4993846;28;20030;-66
2022/11/03 10:57:31;;;;;;;3.42;0.70;;;;;;;14.94;76.72;100454.94;5006372;28;20038;-67
2022/11/03 10:59:57;;;;;;;4.40;1.35;;;;;;;14.77;76.94;100450.28;5006820;28;20476;-65
2022/11/03 11:02:30;;;;;;;1.98;0.90;;;;;;;14.70;76.67;100442.16;5013054;28;20048;-64
2022/11/03 11:05:12;;;;;;;2.53;0.60;;;;;;;14.81;75.80;100434.78;5012612;28;20409;-65
2022/11/03 11:07:40;;;;;;;3.63;1.00;;;;;;;14.57;76.87;100444.47;5001884;28;20397;-65
2022/11/03 11:10:16;;;;;;;6.55;0.82;;;;;;;14.62;77.76;100429.75;5017695;28;20029;-65
2022/11/03 11:13:20;;;;;;;3.78;0.50;;;;;;;14.75;77.71;100425.50;5013419;28;20042;-65
2022/11/03 11:15:49;;;;;;;0.47;0.47;;;;;;;14.70;77.15;100426.66;4989364;28;20042;-65
2022/11/03 11:18:26;;;;;;;1.52;0.52;;;;;;;14.87;77.07;100416.94;4969361;28;20043;-65
2022/11/03 11:20:52;;;;;;;1.75;0.60;;;;;;;15.04;76.83;100416.94;4988122;28;20054;-65
2022/11/03 11:23:42;;;;;;;0.85;0.60;;;;;;;15.07;77.02;100410.75;4974920;28;20049;-65
2022/11/03 11:26:08;;;;;;;4.85;0.77;;;;;;;14.98;76.68;100410.34;4989787;28;20038;-65
2022/11/03 11:28:37;;;;;;;5.28;0.73;;;;;;;15.14;76.73;100405.28;4964884;28;20101;-65
2022/11/03 11:34:33;;;;;;;3.83;0.85;;;;;;;15.45;75.37;100389.34;4969575;28;20133;-65
2022/11/03 11:36:59;;;;;;;1.98;0.63;;;;;;;15.45;75.21;100379.25;4972388;28;20031;-65
2022/11/03 11:39:29;;;;;;;1.88;1.00;;;;;;;15.30;75.18;100369.59;4974696;28;20554;-64
2022/11/03 11:42:08;;;;;;;2.27;0.80;;;;;;;15.47;74.63;100378.84;4989815;28;20045;-65
2022/11/03 11:44:44;;;;;;;2.33;0.82;;;;;;;15.56;74.38;100363.72;4988380;28;20081;-65
2022/11/03 11:47:48;;;;;;;1.33;0.57;;;;;;;15.45;74.59;100362.97;5005686;28;20046;-64
2022/11/03 11:50:15;;;;;;;2.75;0.70;;;;;;;15.34;73.74;100359.50;5011599;28;20112;-65
2022/11/03 11:52:49;;;;;;;0.90;0.77;;;;;;;15.51;74.50;100353.25;5011415;28;20065;-65
2022/11/03 11:55:23;;;;;;;1.85;0.50;;;;;;;15.64;73.93;100354.34;5010058;28;20117;-64
2022/11/03 11:57:50;;;;;;;3.05;0.68;;;;;;;15.67;72.37;100342.72;5002749;28;20022;-64
2022/11/03 12:00:19;;;;;;;0.80;0.35;;;;;;;15.55;73.06;100343.16;5005356;28;20085;-65